Arthur, IL

9:06 AM CDT on September 02, 2014 (GMT -0500)
West of lovington | Change Station
CLOSE
Current Station
Personal Weather Station
Location: Lovington, IL
Elevation: 666 ft
Nearby Weather Stations

Elev 666 ft 39.72 °N, 88.65 °W | Updated 9 seconds ago

Overcast
Overcast
69.4 °F
Feels Like 69.4 °F
N
1.1
Wind Variable Wind from West
Gusts 2.5 mph

Today
High -- | Low -- °F
--% Chance of Precip.
Yesterday
High -- | Low -- °F
Precip. -- in
6:22 AM 7:23 PM
First Quarter, 51% visible
Pressure 29.93 in
Visibility 10.0 miles
Clouds Overcast 700 ft
Dew Point 69 °F
Humidity 99%
Rainfall 0.65 in
Snow Depth Not available.
UV 1 out of 12
Pollen 3.50 out of 12
Air Quality Not available.
Flu Activity Not available.
METAR KMTO 021353Z AUTO 21008KT 10SM OVC007 21/19 A2994 RMK AO2 CIG 005V010 SLP135 T02110194

More Conditions Fewer Conditions

Pressure 29.93 in
Visibility 10.0 miles
Clouds Overcast 700 ft
Dew Point 69 °F
Humidity 99%
Rainfall 0.65 in
Snow Depth Not available.
UV 1 out of 12
Pollen 3.50 out of 12
Air Quality Not available.
Flu Activity Not available.
METAR KMTO 021353Z AUTO 21008KT 10SM OVC007 21/19 A2994 RMK AO2 CIG 005V010 SLP135 T02110194

More Conditions Fewer Conditions

10-Day Weather Forecast

Almanac

Astronomy

Sep. 02, 2014 Rise Set
Actual Time 6:22 AM CDT 7:23 PM CDT
Civil Twilight 5:55 AM CDT 7:50 PM CDT
Nautical Twilight 5:22 AM CDT 8:23 PM CDT
Astronomical Twilight 4:48 AM CDT 8:57 PM CDT
Moon 2:05 PM CDT No Moon Set
Length of Visible Light 13h 55m
Length of Day
13h 00m
Tomorrow will be 2m 29s shorter.
First Quarter, 51% of the Moon is Illuminated
Today
First Quarter
Sep 8
Full
Sep 15
Last Quarter
Sep 24
New
Oct 1
First Quarter

Today's Extremes

State Highs State Lows

Community

WunderPhotos

Upload Photos

1,749,670 photos uploaded!

WunderBlogs® & News

Nearby

Snow Depth

Station Depth Elevation
No new snow has been reported.

Earthquake Activity

City Distance Mag. Time & Date
No recent earthquake activity has been reported nearby.
Minimum magnitude displayed is 2.5.

Coastal Water Temperatures

Place Temperature
No Stations Reporting

Nearby Weather Stations